Terminal Aerodrome Forecast
Issued by NWS

Home | Current Version | Previous Version | Text Only | Print | Product List | Glossary On
Versions: 1 2 3 4 5 6 7 8 9 10 11 12 13 14
000
FTAK31 PAJN 021700
TAFAJN
TAF
PAJN 021737Z 0218/0318 12022G30KT 6SM -RA SCT020 BKN035 OVC050
      WS020/14035KT
     FM021900 12012G22KT P6SM -SHRA BKN025 OVC050
      TEMPO 0219/0222 4SM -SHRA BR BKN015 OVC025
     FM030000 10010KT P6SM VCSH BKN035 OVC050
     FM031200 10010KT P6SM BKN035 OVC050=

USA.gov is the U.S. government's official web portal to all federal, state and local government web resources and services.